sensor_id;sensor_type;location;lat;lon;timestamp;pressure;altitude;pressure_sealevel;temperature;humidity
21086;BME280;72320;50.082;20.000;2023-10-19T00:00:48;98559.41;;;3.36;100.00
21086;BME280;72320;50.082;20.000;2023-10-19T00:02:22;98560.25;;;3.37;100.00
21086;BME280;72320;50.082;20.000;2023-10-19T00:03:55;98558.47;;;3.37;100.00
21086;BME280;72320;50.082;20.000;2023-10-19T00:05:29;98552.38;;;3.37;100.00
21086;BME280;72320;50.082;20.000;2023-10-19T00:07:03;98552.38;;;3.37;100.00
21086;BME280;72320;50.082;20.000;2023-10-19T00:08:36;98543.66;;;3.36;100.00
21086;BME280;72320;50.082;20.000;2023-10-19T00:10:09;98548.91;;;3.36;100.00
21086;BME280;72320;50.082;20.000;2023-10-19T00:11:43;98545.44;;;3.36;100.00
21086;BME280;72320;50.082;20.000;2023-10-19T00:13:16;98555.16;;;3.34;100.00
21086;BME280;72320;50.082;20.000;2023-10-19T00:14:49;98549.75;;;3.37;100.00
21086;BME280;72320;50.082;20.000;2023-10-19T00:16:22;98552.38;;;3.37;100.00
21086;BME280;72320;50.082;20.000;2023-10-19T00:17:57;98543.50;;;3.39;100.00
21086;BME280;72320;50.082;20.000;2023-10-19T00:19:33;98544.34;;;3.40;100.00
21086;BME280;72320;50.082;20.000;2023-10-19T00:21:07;98543.50;;;3.39;100.00
21086;BME280;72320;50.082;20.000;2023-10-19T00:22:41;98541.88;;;3.37;100.00
21086;BME280;72320;50.082;20.000;2023-10-19T00:24:15;98537.41;;;3.39;100.00
21086;BME280;72320;50.082;20.000;2023-10-19T00:25:48;98541.72;;;3.40;100.00
21086;BME280;72320;50.082;20.000;2023-10-19T00:27:21;98543.50;;;3.39;100.00
21086;BME280;72320;50.082;20.000;2023-10-19T00:28:55;98548.72;;;3.39;100.00
21086;BME280;72320;50.082;20.000;2023-10-19T00:30:29;98546.28;;;3.36;100.00
21086;BME280;72320;50.082;20.000;2023-10-19T00:32:02;98539.34;;;3.35;100.00
21086;BME280;72320;50.082;20.000;2023-10-19T00:33:45;98545.50;;;3.34;100.00
21086;BME280;72320;50.082;20.000;2023-10-19T00:35:18;98542.09;;;3.32;100.00
21086;BME280;72320;50.082;20.000;2023-10-19T00:36:51;98536.72;;;3.35;100.00
21086;BME280;72320;50.082;20.000;2023-10-19T00:38:25;98533.25;;;3.35;100.00
21086;BME280;72320;50.082;20.000;2023-10-19T00:39:58;98536.72;;;3.35;100.00
21086;BME280;72320;50.082;20.000;2023-10-19T00:41:32;98535.88;;;3.35;100.00
21086;BME280;72320;50.082;20.000;2023-10-19T00:43:06;98527.16;;;3.34;100.00
21086;BME280;72320;50.082;20.000;2023-10-19T00:44:39;98527.16;;;3.34;100.00
21086;BME280;72320;50.082;20.000;2023-10-19T00:46:15;98521.91;;;3.34;100.00
21086;BME280;72320;50.082;20.000;2023-10-19T00:47:49;98519.34;;;3.32;100.00
21086;BME280;72320;50.082;20.000;2023-10-19T00:49:25;98514.03;;;3.34;100.00
21086;BME280;72320;50.082;20.000;2023-10-19T00:50:59;98520.13;;;3.35;100.00
21086;BME280;72320;50.082;20.000;2023-10-19T00:52:33;98510.50;;;3.35;100.00
21086;BME280;72320;50.082;20.000;2023-10-19T00:54:18;98508.78;;;3.34;100.00
21086;BME280;72320;50.082;20.000;2023-10-19T00:55:54;98506.22;;;3.32;100.00
21086;BME280;72320;50.082;20.000;2023-10-19T00:57:27;98500.06;;;3.34;100.00
21086;BME280;72320;50.082;20.000;2023-10-19T00:59:02;98488.78;;;3.31;100.00
21086;BME280;72320;50.082;20.000;2023-10-19T01:00:36;98495.06;;;3.29;100.00
21086;BME280;72320;50.082;20.000;2023-10-19T01:02:10;98491.66;;;3.27;100.00
21086;BME280;72320;50.082;20.000;2023-10-19T01:03:43;98491.59;;;3.28;100.00
21086;BME280;72320;50.082;20.000;2023-10-19T01:05:16;98473.22;;;3.28;100.00
21086;BME280;72320;50.082;20.000;2023-10-19T01:06:50;98496.66;;;3.31;100.00
21086;BME280;72320;50.082;20.000;2023-10-19T01:08:23;98483.53;;;3.31;100.00
21086;BME280;72320;50.082;20.000;2023-10-19T01:10:00;98481.78;;;3.32;100.00
21086;BME280;72320;50.082;20.000;2023-10-19T01:11:34;98471.44;;;3.29;100.00
21086;BME280;72320;50.082;20.000;2023-10-19T01:13:07;98480.00;;;3.32;100.00
21086;BME280;72320;50.082;20.000;2023-10-19T01:14:41;98480.91;;;3.31;100.00
21086;BME280;72320;50.082;20.000;2023-10-19T01:16:18;98473.91;;;3.32;100.00
21086;BME280;72320;50.082;20.000;2023-10-19T01:17:52;98470.34;;;3.33;100.00
21086;BME280;72320;50.082;20.000;2023-10-19T01:19:25;98468.66;;;3.32;100.00
21086;BME280;72320;50.082;20.000;2023-10-19T01:20:59;98467.72;;;3.33;100.00
21086;BME280;72320;50.082;20.000;2023-10-19T01:22:32;98471.28;;;3.32;100.00
21086;BME280;72320;50.082;20.000;2023-10-19T01:24:07;98464.44;;;3.29;100.00
21086;BME280;72320;50.082;20.000;2023-10-19T01:25:52;98459.34;;;3.26;100.00
21086;BME280;72320;50.082;20.000;2023-10-19T01:27:26;98462.03;;;3.25;100.00
21086;BME280;72320;50.082;20.000;2023-10-19T01:28:59;98457.81;;;3.22;100.00
21086;BME280;72320;50.082;20.000;2023-10-19T01:30:32;98456.97;;;3.22;100.00
21086;BME280;72320;50.082;20.000;2023-10-19T01:32:06;98456.25;;;3.18;100.00
21086;BME280;72320;50.082;20.000;2023-10-19T01:33:41;98452.03;;;3.16;100.00
21086;BME280;72320;50.082;20.000;2023-10-19T01:35:14;98455.66;;;3.13;100.00
21086;BME280;72320;50.082;20.000;2023-10-19T01:36:47;98450.34;;;3.15;100.00
21086;BME280;72320;50.082;20.000;2023-10-19T01:38:21;98439.94;;;3.13;100.00
21086;BME280;72320;50.082;20.000;2023-10-19T01:39:54;98434.81;;;3.10;100.00
21086;BME280;72320;50.082;20.000;2023-10-19T01:41:28;98442.78;;;3.09;100.00
21086;BME280;72320;50.082;20.000;2023-10-19T01:43:01;98429.00;;;3.05;100.00
21086;BME280;72320;50.082;20.000;2023-10-19T01:44:35;98434.16;;;3.07;100.00
21086;BME280;72320;50.082;20.000;2023-10-19T01:46:10;98435.09;;;3.06;100.00
21086;BME280;72320;50.082;20.000;2023-10-19T01:47:43;98437.75;;;3.04;100.00
21086;BME280;72320;50.082;20.000;2023-10-19T01:49:16;98433.38;;;3.04;100.00
21086;BME280;72320;50.082;20.000;2023-10-19T01:50:50;98429.00;;;3.05;100.00
21086;BME280;72320;50.082;20.000;2023-10-19T01:52:23;98429.88;;;3.04;100.00
21086;BME280;72320;50.082;20.000;2023-10-19T01:54:00;98427.28;;;3.04;100.00
21086;BME280;72320;50.082;20.000;2023-10-19T01:55:38;98429.00;;;3.05;100.00
21086;BME280;72320;50.082;20.000;2023-10-19T01:57:11;98416.78;;;3.04;100.00
21086;BME280;72320;50.082;20.000;2023-10-19T01:58:46;98416.88;;;3.02;100.00
21086;BME280;72320;50.082;20.000;2023-10-19T02:00:20;98411.53;;;3.04;100.00
21086;BME280;72320;50.082;20.000;2023-10-19T02:01:56;98416.78;;;3.04;100.00
21086;BME280;72320;50.082;20.000;2023-10-19T02:03:29;98415.03;;;3.04;100.00
21086;BME280;72320;50.082;20.000;2023-10-19T02:05:03;98406.28;;;3.04;100.00
21086;BME280;72320;50.082;20.000;2023-10-19T02:06:40;98408.91;;;3.04;100.00
21086;BME280;72320;50.082;20.000;2023-10-19T02:08:13;98402.81;;;3.03;100.00
21086;BME280;72320;50.082;20.000;2023-10-19T02:09:46;98398.50;;;3.02;100.00
21086;BME280;72320;50.082;20.000;2023-10-19T02:11:21;98401.97;;;3.03;100.00
21086;BME280;72320;50.082;20.000;2023-10-19T02:12:54;98402.78;;;3.05;100.00
21086;BME280;72320;50.082;20.000;2023-10-19T02:14:30;98389.72;;;3.03;100.00
21086;BME280;72320;50.082;20.000;2023-10-19T02:16:04;98394.06;;;3.04;100.00
21086;BME280;72320;50.082;20.000;2023-10-19T02:17:37;98392.34;;;3.03;100.00
21086;BME280;72320;50.082;20.000;2023-10-19T02:19:13;98391.44;;;3.04;100.00
21086;BME280;72320;50.082;20.000;2023-10-19T02:20:47;98386.19;;;3.04;100.00
21086;BME280;72320;50.082;20.000;2023-10-19T02:22:20;98390.56;;;3.04;100.00
21086;BME280;72320;50.082;20.000;2023-10-19T02:23:54;98388.88;;;3.03;100.00
21086;BME280;72320;50.082;20.000;2023-10-19T02:25:27;98383.81;;;3.00;100.00
21086;BME280;72320;50.082;20.000;2023-10-19T02:27:00;98383.81;;;3.00;100.00
21086;BME280;72320;50.082;20.000;2023-10-19T02:28:33;98384.66;;;3.00;100.00
21086;BME280;72320;50.082;20.000;2023-10-19T02:30:07;98381.09;;;3.01;100.00
21086;BME280;72320;50.082;20.000;2023-10-19T02:31:41;98386.34;;;3.01;100.00
21086;BME280;72320;50.082;20.000;2023-10-19T02:33:15;98369.84;;;2.99;100.00
21086;BME280;72320;50.082;20.000;2023-10-19T02:34:48;98369.84;;;2.99;100.00
21086;BME280;72320;50.082;20.000;2023-10-19T02:36:22;98376.94;;;2.97;100.00
21086;BME280;72320;50.082;20.000;2023-10-19T02:37:55;98373.53;;;2.95;100.00
21086;BME280;72320;50.082;20.000;2023-10-19T02:39:28;98371.00;;;2.94;100.00
21086;BME280;72320;50.082;20.000;2023-10-19T02:41:01;98371.94;;;2.93;100.00
21086;BME280;72320;50.082;20.000;2023-10-19T02:42:35;98367.72;;;2.90;100.00
21086;BME280;72320;50.082;20.000;2023-10-19T02:44:10;98375.56;;;2.90;100.00
21086;BME280;72320;50.082;20.000;2023-10-19T02:45:49;98362.59;;;2.87;100.00
21086;BME280;72320;50.082;20.000;2023-10-19T02:47:22;98359.31;;;2.84;100.00
21086;BME280;72320;50.082;20.000;2023-10-19T02:48:56;98362.06;;;2.81;100.00
21086;BME280;72320;50.082;20.000;2023-10-19T02:50:32;98351.84;;;2.76;100.00
21086;BME280;72320;50.082;20.000;2023-10-19T02:52:05;98347.69;;;2.72;100.00
21086;BME280;72320;50.082;20.000;2023-10-19T02:53:40;98347.84;;;2.69;100.00
21086;BME280;72320;50.082;20.000;2023-10-19T02:55:12;98341.75;;;2.68;100.00
21086;BME280;72320;50.082;20.000;2023-10-19T02:56:54;98347.06;;;2.67;100.00
21086;BME280;72320;50.082;20.000;2023-10-19T02:58:28;98343.69;;;2.65;100.00
21086;BME280;72320;50.082;20.000;2023-10-19T03:00:01;98336.00;;;2.62;100.00
21086;BME280;72320;50.082;20.000;2023-10-19T03:01:34;98333.41;;;2.60;100.00
21086;BME280;72320;50.082;20.000;2023-10-19T03:03:08;98331.91;;;2.56;100.00
21086;BME280;72320;50.082;20.000;2023-10-19T03:04:41;98332.84;;;2.55;100.00
21086;BME280;72320;50.082;20.000;2023-10-19T03:06:18;98335.38;;;2.57;100.00
21086;BME280;72320;50.082;20.000;2023-10-19T03:07:51;98328.34;;;2.57;100.00
21086;BME280;72320;50.082;20.000;2023-10-19T03:09:24;98327.50;;;2.57;100.00
21086;BME280;72320;50.082;20.000;2023-10-19T03:10:57;98337.06;;;2.58;100.00
21086;BME280;72320;50.082;20.000;2023-10-19T03:12:34;98338.91;;;2.56;100.00
21086;BME280;72320;50.082;20.000;2023-10-19T03:14:11;98336.44;;;2.53;100.00
21086;BME280;72320;50.082;20.000;2023-10-19T03:15:44;98330.34;;;2.52;100.00
21086;BME280;72320;50.082;20.000;2023-10-19T03:17:18;98319.88;;;2.52;100.00
21086;BME280;72320;50.082;20.000;2023-10-19T03:18:52;98306.84;;;2.51;100.00
21086;BME280;72320;50.082;20.000;2023-10-19T03:20:25;98316.56;;;2.48;100.00
21086;BME280;72320;50.082;20.000;2023-10-19T03:21:58;98321.06;;;2.46;100.00
21086;BME280;72320;50.082;20.000;2023-10-19T03:23:31;98312.41;;;2.44;100.00
21086;BME280;72320;50.082;20.000;2023-10-19T03:25:07;98305.47;;;2.43;100.00
21086;BME280;72320;50.082;20.000;2023-10-19T03:26:40;98302.09;;;2.41;100.00
21086;BME280;72320;50.082;20.000;2023-10-19T03:28:13;98302.09;;;2.41;100.00
21086;BME280;72320;50.082;20.000;2023-10-19T03:29:47;98297.78;;;2.40;100.00
21086;BME280;72320;50.082;20.000;2023-10-19T03:31:24;98292.69;;;2.37;100.00
21086;BME280;72320;50.082;20.000;2023-10-19T03:32:57;98299.78;;;2.35;100.00
21086;BME280;72320;50.082;20.000;2023-10-19T03:34:31;98298.09;;;2.34;100.00
21086;BME280;72320;50.082;20.000;2023-10-19T03:36:05;98288.59;;;2.32;100.00
21086;BME280;72320;50.082;20.000;2023-10-19T03:37:38;98288.69;;;2.30;100.00
21086;BME280;72320;50.082;20.000;2023-10-19T03:39:11;98287.84;;;2.30;100.00
21086;BME280;72320;50.082;20.000;2023-10-19T03:40:44;98291.31;;;2.30;100.00
21086;BME280;72320;50.082;20.000;2023-10-19T03:42:18;98279.91;;;2.31;100.00
21086;BME280;72320;50.082;20.000;2023-10-19T03:43:55;98283.31;;;2.33;100.00
21086;BME280;72320;50.082;20.000;2023-10-19T03:45:28;98284.16;;;2.34;100.00
21086;BME280;72320;50.082;20.000;2023-10-19T03:47:01;98270.13;;;2.35;100.00
21086;BME280;72320;50.082;20.000;2023-10-19T03:48:34;98265.97;;;2.31;100.00
21086;BME280;72320;50.082;20.000;2023-10-19T03:50:08;98267.59;;;2.33;100.00
21086;BME280;72320;50.082;20.000;2023-10-19T03:51:42;98262.28;;;2.35;100.00
21086;BME280;72320;50.082;20.000;2023-10-19T03:53:15;98263.03;;;2.37;100.00
21086;BME280;72320;50.082;20.000;2023-10-19T03:54:49;98244.63;;;2.38;100.00
21086;BME280;72320;50.082;20.000;2023-10-19T03:56:22;98244.78;;;2.35;100.00
21086;BME280;72320;50.082;20.000;2023-10-19T03:57:56;98226.63;;;2.32;100.00
21086;BME280;72320;50.082;20.000;2023-10-19T03:59:29;98240.16;;;2.40;100.00
21086;BME280;72320;50.082;20.000;2023-10-19T04:01:03;98235.78;;;2.41;100.00
21086;BME280;72320;50.082;20.000;2023-10-19T04:02:36;98230.34;;;2.44;100.00
21086;BME280;72320;50.082;20.000;2023-10-19T04:04:10;98225.97;;;2.44;100.00
21086;BME280;72320;50.082;20.000;2023-10-19T04:05:44;98224.13;;;2.46;100.00
21086;BME280;72320;50.082;20.000;2023-10-19T04:07:18;98224.06;;;2.48;100.00
21086;BME280;72320;50.082;20.000;2023-10-19T04:08:52;98219.75;;;2.47;100.00
21086;BME280;72320;50.082;20.000;2023-10-19T04:10:25;98222.28;;;2.48;100.00
21086;BME280;72320;50.082;20.000;2023-10-19T04:11:58;98223.03;;;2.51;100.00
21086;BME280;72320;50.082;20.000;2023-10-19T04:13:31;98219.47;;;2.52;100.00
21086;BME280;72320;50.082;20.000;2023-10-19T04:15:06;98227.19;;;2.55;100.00
21086;BME280;72320;50.082;20.000;2023-10-19T04:16:40;98218.31;;;2.57;100.00
21086;BME280;72320;50.082;20.000;2023-10-19T04:18:13;98221.47;;;2.64;100.00
21086;BME280;72320;50.082;20.000;2023-10-19T04:19:56;98214.22;;;2.69;100.00
21086;BME280;72320;50.082;20.000;2023-10-19T04:21:29;98216.56;;;2.73;100.00
21086;BME280;72320;50.082;20.000;2023-10-19T04:23:03;98212.88;;;2.78;100.00
21086;BME280;72320;50.082;20.000;2023-10-19T04:24:37;98216.34;;;2.78;100.00
21086;BME280;72320;50.082;20.000;2023-10-19T04:26:10;98217.94;;;2.81;100.00
21086;BME280;72320;50.082;20.000;2023-10-19T04:27:44;98211.09;;;2.78;100.00
21086;BME280;72320;50.082;20.000;2023-10-19T04:29:18;98201.47;;;2.79;100.00
21086;BME280;72320;50.082;20.000;2023-10-19T04:30:50;98205.94;;;2.76;100.00
21086;BME280;72320;50.082;20.000;2023-10-19T04:32:24;98196.97;;;2.81;100.00
21086;BME280;72320;50.082;20.000;2023-10-19T04:33:57;98199.50;;;2.82;100.00
21086;BME280;72320;50.082;20.000;2023-10-19T04:35:30;98190.78;;;2.82;100.00
21086;BME280;72320;50.082;20.000;2023-10-19T04:37:03;98196.72;;;2.85;100.00
21086;BME280;72320;50.082;20.000;2023-10-19T04:38:37;98196.56;;;2.88;100.00
21086;BME280;72320;50.082;20.000;2023-10-19T04:40:11;98192.16;;;2.89;100.00
21086;BME280;72320;50.082;20.000;2023-10-19T04:41:45;98185.91;;;2.91;100.00
21086;BME280;72320;50.082;20.000;2023-10-19T04:43:20;98189.28;;;2.93;100.00
21086;BME280;72320;50.082;20.000;2023-10-19T04:44:56;98181.69;;;3.04;100.00
21086;BME280;72320;50.082;20.000;2023-10-19T04:46:29;98185.69;;;3.12;100.00
21086;BME280;72320;50.082;20.000;2023-10-19T04:48:03;98188.72;;;3.20;100.00
21086;BME280;72320;50.082;20.000;2023-10-19T04:49:36;98187.50;;;3.25;100.00
21086;BME280;72320;50.082;20.000;2023-10-19T04:51:11;98192.31;;;3.33;100.00
21086;BME280;72320;50.082;20.000;2023-10-19T04:52:44;98184.03;;;3.41;100.00
21086;BME280;72320;50.082;20.000;2023-10-19T04:54:20;98185.38;;;3.48;100.00
21086;BME280;72320;50.082;20.000;2023-10-19T04:55:53;98190.19;;;3.55;100.00
21086;BME280;72320;50.082;20.000;2023-10-19T04:57:26;98194.91;;;3.65;100.00
21086;BME280;72320;50.082;20.000;2023-10-19T04:58:59;98181.44;;;3.71;100.00
21086;BME280;72320;50.082;20.000;2023-10-19T05:00:36;98179.47;;;3.74;100.00
21086;BME280;72320;50.082;20.000;2023-10-19T05:02:09;98174.91;;;3.78;100.00
21086;BME280;72320;50.082;20.000;2023-10-19T05:03:42;98178.38;;;3.78;100.00
21086;BME280;72320;50.082;20.000;2023-10-19T05:05:15;98170.41;;;3.80;100.00
21086;BME280;72320;50.082;20.000;2023-10-19T05:06:48;98176.69;;;3.77;100.00
21086;BME280;72320;50.082;20.000;2023-10-19T05:08:23;98170.66;;;3.75;100.00
21086;BME280;72320;50.082;20.000;2023-10-19T05:09:56;98179.38;;;3.76;100.00
21086;BME280;72320;50.082;20.000;2023-10-19T05:11:30;98182.78;;;3.78;100.00
21086;BME280;72320;50.082;20.000;2023-10-19T05:13:03;98178.38;;;3.78;100.00
21086;BME280;72320;50.082;20.000;2023-10-19T05:14:41;98182.50;;;3.82;100.00
21086;BME280;72320;50.082;20.000;2023-10-19T05:16:14;98179.50;;;3.88;100.00
21086;BME280;72320;50.082;20.000;2023-10-19T05:17:48;98173.81;;;3.96;100.00
21086;BME280;72320;50.082;20.000;2023-10-19T05:19:21;98175.13;;;4.03;100.00
21086;BME280;72320;50.082;20.000;2023-10-19T05:20:54;98169.44;;;4.11;100.00
21086;BME280;72320;50.082;20.000;2023-10-19T05:22:27;98168.41;;;4.13;100.00
21086;BME280;72320;50.082;20.000;2023-10-19T05:24:00;98173.47;;;4.17;100.00
21086;BME280;72320;50.082;20.000;2023-10-19T05:25:36;98179.22;;;4.23;100.00
21086;BME280;72320;50.082;20.000;2023-10-19T05:27:09;98169.28;;;4.28;100.00
21086;BME280;72320;50.082;20.000;2023-10-19T05:28:45;98180.25;;;4.35;100.00
21086;BME280;72320;50.082;20.000;2023-10-19T05:30:18;98179.97;;;4.39;100.00
21086;BME280;72320;50.082;20.000;2023-10-19T05:31:52;98178.75;;;4.45;100.00
21086;BME280;72320;50.082;20.000;2023-10-19T05:33:29;98184.56;;;4.50;100.00
21086;BME280;72320;50.082;20.000;2023-10-19T05:35:04;98183.44;;;4.54;100.00
21086;BME280;72320;50.082;20.000;2023-10-19T05:36:37;98184.28;;;4.55;100.00
21086;BME280;72320;50.082;20.000;2023-10-19T05:38:10;98179.59;;;4.60;100.00
21086;BME280;72320;50.082;20.000;2023-10-19T05:39:44;98189.06;;;4.62;100.00
21086;BME280;72320;50.082;20.000;2023-10-19T05:41:17;98180.34;;;4.62;100.00
21086;BME280;72320;50.082;20.000;2023-10-19T05:42:50;98171.50;;;4.63;100.00
21086;BME280;72320;50.082;20.000;2023-10-19T05:44:24;98172.34;;;4.63;100.00
21086;BME280;72320;50.082;20.000;2023-10-19T05:45:57;98168.44;;;4.56;100.00
21086;BME280;72320;50.082;20.000;2023-10-19T05:47:30;98160.63;;;4.55;100.00
21086;BME280;72320;50.082;20.000;2023-10-19T05:49:04;98161.19;;;4.60;100.00
21086;BME280;72320;50.082;20.000;2023-10-19T05:50:37;98155.94;;;4.60;100.00
21086;BME280;72320;50.082;20.000;2023-10-19T05:52:10;98158.28;;;4.64;100.00
21086;BME280;72320;50.082;20.000;2023-10-19T05:53:43;98158.09;;;4.67;100.00
21086;BME280;72320;50.082;20.000;2023-10-19T05:55:16;98156.78;;;4.75;100.00
21086;BME280;72320;50.082;20.000;2023-10-19T05:56:50;98146.81;;;4.80;100.00
21086;BME280;72320;50.082;20.000;2023-10-19T05:58:23;98145.97;;;4.79;100.00
21086;BME280;72320;50.082;20.000;2023-10-19T05:59:56;98147.38;;;4.70;100.00
21086;BME280;72320;50.082;20.000;2023-10-19T06:01:33;98142.13;;;4.70;100.00
21086;BME280;72320;50.082;20.000;2023-10-19T06:03:06;98145.69;;;4.69;100.00
21086;BME280;72320;50.082;20.000;2023-10-19T06:04:40;98149.25;;;4.68;100.00
21086;BME280;72320;50.082;20.000;2023-10-19T06:06:13;98140.81;;;4.63;100.00
21086;BME280;72320;50.082;20.000;2023-10-19T06:07:49;98143.47;;;4.49;100.00
21086;BME280;72320;50.082;20.000;2023-10-19T06:09:22;98141.22;;;4.43;100.00
21086;BME280;72320;50.082;20.000;2023-10-19T06:10:56;98136.81;;;4.43;100.00
21086;BME280;72320;50.082;20.000;2023-10-19T06:12:31;98135.19;;;4.41;100.00
21086;BME280;72320;50.082;20.000;2023-10-19T06:14:04;98145.72;;;4.41;100.00
21086;BME280;72320;50.082;20.000;2023-10-19T06:15:37;98146.47;;;4.43;100.00
21086;BME280;72320;50.082;20.000;2023-10-19T06:17:11;98148.44;;;4.39;100.00
21086;BME280;72320;50.082;20.000;2023-10-19T06:18:44;98145.91;;;4.38;100.00
21086;BME280;72320;50.082;20.000;2023-10-19T06:20:17;98145.63;;;4.42;100.00
21086;BME280;72320;50.082;20.000;2023-10-19T06:21:51;98144.78;;;4.42;100.00
21086;BME280;72320;50.082;20.000;2023-10-19T06:23:24;98145.34;;;4.47;100.00
21086;BME280;72320;50.082;20.000;2023-10-19T06:24:58;98141.38;;;4.54;100.00
21086;BME280;72320;50.082;20.000;2023-10-19T06:26:31;98134.81;;;4.61;100.00
21086;BME280;72320;50.082;20.000;2023-10-19T06:28:06;98132.38;;;4.73;100.00
21086;BME280;72320;50.082;20.000;2023-10-19T06:29:39;98131.16;;;4.78;100.00
21086;BME280;72320;50.082;20.000;2023-10-19T06:31:12;98134.22;;;4.85;100.00
21086;BME280;72320;50.082;20.000;2023-10-19T06:32:53;98131.41;;;4.88;100.00
21086;BME280;72320;50.082;20.000;2023-10-19T06:34:28;98134.59;;;4.93;100.00
21086;BME280;72320;50.082;20.000;2023-10-19T06:36:02;98129.34;;;4.93;100.00
21086;BME280;72320;50.082;20.000;2023-10-19T06:37:35;98135.91;;;5.00;100.00
21086;BME280;72320;50.082;20.000;2023-10-19T06:39:08;98117.50;;;5.00;100.00
21086;BME280;72320;50.082;20.000;2023-10-19T06:40:41;98120.84;;;5.02;100.00
21086;BME280;72320;50.082;20.000;2023-10-19T06:42:15;98114.66;;;5.03;100.00
21086;BME280;72320;50.082;20.000;2023-10-19T06:43:48;98111.06;;;5.04;100.00
21086;BME280;72320;50.082;20.000;2023-10-19T06:45:22;98101.22;;;5.08;100.00
21086;BME280;72320;50.082;20.000;2023-10-19T06:46:55;98099.94;;;5.13;100.00
21086;BME280;72320;50.082;20.000;2023-10-19T06:48:28;98102.53;;;5.28;100.00
21086;BME280;72320;50.082;20.000;2023-10-19T06:50:01;98098.81;;;5.44;100.00
21086;BME280;72320;50.082;20.000;2023-10-19T06:51:35;98096.41;;;5.54;100.00
21086;BME280;72320;50.082;20.000;2023-10-19T06:53:08;98097.97;;;5.57;100.00
21086;BME280;72320;50.082;20.000;2023-10-19T06:54:44;98096.72;;;5.62;100.00
21086;BME280;72320;50.082;20.000;2023-10-19T06:56:17;98089.69;;;5.75;100.00
21086;BME280;72320;50.082;20.000;2023-10-19T06:57:53;98089.91;;;5.85;100.00
21086;BME280;72320;50.082;20.000;2023-10-19T06:59:26;98082.94;;;5.84;100.00
21086;BME280;72320;50.082;20.000;2023-10-19T07:00:59;98081.03;;;5.86;100.00
21086;BME280;72320;50.082;20.000;2023-10-19T07:02:33;98072.66;;;5.94;100.00
21086;BME280;72320;50.082;20.000;2023-10-19T07:04:06;98072.03;;;6.03;100.00
21086;BME280;72320;50.082;20.000;2023-10-19T07:05:39;98062.13;;;6.06;100.00
21086;BME280;72320;50.082;20.000;2023-10-19T07:07:13;98066.84;;;6.14;100.00
21086;BME280;72320;50.082;20.000;2023-10-19T07:08:46;98069.28;;;6.17;100.00
21086;BME280;72320;50.082;20.000;2023-10-19T07:10:20;98065.72;;;6.18;100.00
21086;BME280;72320;50.082;20.000;2023-10-19T07:11:53;98065.72;;;6.18;100.00
21086;BME280;72320;50.082;20.000;2023-10-19T07:13:26;98059.19;;;6.11;100.00
21086;BME280;72320;50.082;20.000;2023-10-19T07:15:00;98052.00;;;6.13;100.00
21086;BME280;72320;50.082;20.000;2023-10-19T07:16:33;98052.41;;;6.20;100.00
21086;BME280;72320;50.082;20.000;2023-10-19T07:18:06;98045.47;;;6.19;100.00
21086;BME280;72320;50.082;20.000;2023-10-19T07:19:42;98056.97;;;6.30;100.00
21086;BME280;72320;50.082;20.000;2023-10-19T07:21:16;98049.13;;;6.42;100.00
21086;BME280;72320;50.082;20.000;2023-10-19T07:22:49;98045.63;;;6.54;100.00
21086;BME280;72320;50.082;20.000;2023-10-19T07:24:25;98050.94;;;6.65;100.00
21086;BME280;72320;50.082;20.000;2023-10-19T07:25:59;98043.41;;;6.84;100.00
21086;BME280;72320;50.082;20.000;2023-10-19T07:27:39;98029.81;;;7.02;100.00
21086;BME280;72320;50.082;20.000;2023-10-19T07:29:16;98044.31;;;7.31;100.00
21086;BME280;72320;50.082;20.000;2023-10-19T07:30:50;98033.50;;;7.58;100.00
21086;BME280;72320;50.082;20.000;2023-10-19T07:32:23;98034.63;;;7.89;100.00
21086;BME280;72320;50.082;20.000;2023-10-19T07:33:57;98032.25;;;8.09;100.00
21086;BME280;72320;50.082;20.000;2023-10-19T07:35:35;98034.66;;;8.23;100.00
21086;BME280;72320;50.082;20.000;2023-10-19T07:37:09;98024.31;;;8.31;100.00
21086;BME280;72320;50.082;20.000;2023-10-19T07:38:42;98022.91;;;8.38;100.00
21086;BME280;72320;50.082;20.000;2023-10-19T07:40:16;98024.84;;;8.47;100.00
21086;BME280;72320;50.082;20.000;2023-10-19T07:41:50;98016.50;;;8.63;100.00
21086;BME280;72320;50.082;20.000;2023-10-19T07:43:23;98016.59;;;8.84;100.00
21086;BME280;72320;50.082;20.000;2023-10-19T07:44:56;98012.09;;;8.96;100.00
21086;BME280;72320;50.082;20.000;2023-10-19T07:46:30;98013.13;;;9.04;100.00
21086;BME280;72320;50.082;20.000;2023-10-19T07:48:05;98001.84;;;9.02;99.34
21086;BME280;72320;50.082;20.000;2023-10-19T07:49:38;98000.44;;;8.98;99.73
21086;BME280;72320;50.082;20.000;2023-10-19T07:51:12;98001.72;;;9.04;100.00
21086;BME280;72320;50.082;20.000;2023-10-19T07:52:47;98005.16;;;9.16;100.00
21086;BME280;72320;50.082;20.000;2023-10-19T07:54:20;98001.63;;;9.26;100.00
21086;BME280;72320;50.082;20.000;2023-10-19T07:55:54;98008.69;;;9.37;100.00
21086;BME280;72320;50.082;20.000;2023-10-19T07:57:27;98001.44;;;9.39;100.00
21086;BME280;72320;50.082;20.000;2023-10-19T07:59:01;98007.19;;;9.44;99.60
21086;BME280;72320;50.082;20.000;2023-10-19T08:00:34;98005.53;;;9.43;98.80
21086;BME280;72320;50.082;20.000;2023-10-19T08:02:08;98006.34;;;9.44;98.88
21086;BME280;72320;50.082;20.000;2023-10-19T08:03:42;98005.25;;;9.46;98.84
21086;BME280;72320;50.082;20.000;2023-10-19T08:05:17;97998.41;;;9.44;97.61
21086;BME280;72320;50.082;20.000;2023-10-19T08:06:50;97995.50;;;9.47;97.65
21086;BME280;72320;50.082;20.000;2023-10-19T08:08:24;97991.22;;;9.55;97.61
21086;BME280;72320;50.082;20.000;2023-10-19T08:09:57;97981.78;;;9.62;97.26
21086;BME280;72320;50.082;20.000;2023-10-19T08:11:31;97986.88;;;9.75;97.74